Time;durP1;ratioP1;P1;durP2;ratioP2;P2;SDS_P1;SDS_P2;PMS_P1;PMS_P2;Temp;Humidity;BMP_temperature;BMP_pressure;BME280_temperature;BME280_humidity;BME280_pressure;Samples;Min_cycle;Max_cycle;Signal;HPM_P1;HPM_P2
2022/10/08 00:01:26;;;;;;;12.00;7.47;;;13.90;99.90;;;;;;5111747;28;20208;-69
2022/10/08 00:03:54;;;;;;;10.53;7.40;;;13.90;99.90;;;;;;5111053;28;20649;-69
2022/10/08 00:06:22;;;;;;;10.60;7.10;;;13.90;99.90;;;;;;5111860;28;20214;-69
2022/10/08 00:08:53;;;;;;;9.43;7.30;;;13.90;99.90;;;;;;5112139;28;20204;-70
2022/10/08 00:11:21;;;;;;;10.07;7.23;;;13.90;99.90;;;;;;5107248;28;20219;-70
2022/10/08 00:13:49;;;;;;;9.50;7.27;;;13.90;99.90;;;;;;5109135;28;20238;-69
2022/10/08 00:16:18;;;;;;;11.57;7.30;;;13.90;99.90;;;;;;5109419;28;20211;-70
2022/10/08 00:18:46;;;;;;;12.47;7.70;;;13.90;99.90;;;;;;5110807;28;20212;-70
2022/10/08 00:21:15;;;;;;;9.00;7.10;;;13.90;99.90;;;;;;5110481;28;20203;-70
2022/10/08 00:23:42;;;;;;;10.50;7.80;;;13.90;99.90;;;;;;5111303;28;20342;-70
2022/10/08 00:26:11;;;;;;;8.80;6.63;;;13.80;99.90;;;;;;5110237;28;20232;-70
2022/10/08 00:28:41;;;;;;;7.57;6.07;;;13.80;99.90;;;;;;5110596;28;20219;-70
2022/10/08 00:31:10;;;;;;;12.27;7.17;;;13.80;99.90;;;;;;5110172;28;20211;-69
2022/10/08 00:33:37;;;;;;;13.43;6.73;;;13.80;99.90;;;;;;5101903;28;20236;-70
2022/10/08 00:36:05;;;;;;;8.50;6.63;;;13.80;99.90;;;;;;5111912;28;20212;-70
2022/10/08 00:38:32;;;;;;;7.93;6.60;;;13.80;99.90;;;;;;5111652;28;20211;-70
2022/10/08 00:40:59;;;;;;;14.57;7.67;;;13.80;99.90;;;;;;5110931;28;20295;-70
2022/10/08 00:43:42;;;;;;;9.23;7.30;;;13.80;99.90;;;;;;5109167;28;20196;-69
2022/10/08 00:46:19;;;;;;;11.33;7.10;;;13.80;99.90;;;;;;5109427;28;20204;-70
2022/10/08 00:48:47;;;;;;;8.90;6.60;;;13.80;99.90;;;;;;5104509;28;20200;-70
2022/10/08 00:51:14;;;;;;;11.43;6.97;;;13.80;99.90;;;;;;5110296;28;20199;-70
2022/10/08 00:53:40;;;;;;;10.43;7.43;;;13.70;99.90;;;;;;5110827;28;20222;-70
2022/10/08 00:56:08;;;;;;;10.67;7.17;;;13.70;99.90;;;;;;5111728;28;20552;-70
2022/10/08 00:58:35;;;;;;;9.40;7.23;;;13.70;99.90;;;;;;5109952;28;20200;-71
2022/10/08 01:01:04;;;;;;;11.73;7.80;;;13.70;99.90;;;;;;5112495;28;20207;-69
2022/10/08 01:03:30;;;;;;;10.07;7.60;;;13.70;99.90;;;;;;5111223;28;20682;-70
2022/10/08 01:06:06;;;;;;;7.63;6.70;;;13.70;99.90;;;;;;5109924;28;20632;-69
2022/10/08 01:08:41;;;;;;;10.90;7.77;;;13.70;99.90;;;;;;5110335;28;20215;-72
2022/10/08 01:11:18;;;;;;;11.43;7.93;;;13.70;99.90;;;;;;5111172;28;20208;-69
2022/10/08 01:13:55;;;;;;;11.13;7.77;;;13.60;99.90;;;;;;5106049;28;20216;-70
2022/10/08 01:16:31;;;;;;;10.63;7.27;;;13.70;99.90;;;;;;5108112;28;20219;-70
2022/10/08 01:19:08;;;;;;;14.23;7.53;;;13.60;99.90;;;;;;5110685;28;20246;-70
2022/10/08 01:21:42;;;;;;;9.77;7.30;;;13.60;99.90;;;;;;5103456;28;20277;-70
2022/10/08 01:25:31;;;;;;;10.23;7.43;;;13.60;99.90;;;;;;5109037;28;20238;-71
2022/10/08 01:27:24;;;;;;;10.53;7.20;;;13.60;99.90;;;;;;5104055;28;20203;-70
2022/10/08 01:29:53;;;;;;;11.57;7.53;;;13.50;99.90;;;;;;5112124;28;20341;-70
2022/10/08 01:32:25;;;;;;;9.37;7.30;;;13.50;99.90;;;;;;5109627;28;20215;-70
2022/10/08 01:34:57;;;;;;;13.63;7.00;;;13.50;99.90;;;;;;5111181;28;20227;-71
2022/10/08 01:37:28;;;;;;;17.47;8.23;;;13.50;99.90;;;;;;5108667;28;20246;-70
2022/10/08 01:39:58;;;;;;;10.13;7.87;;;13.40;99.90;;;;;;5103139;28;20204;-70
2022/10/08 01:42:28;;;;;;;12.50;8.00;;;13.40;99.90;;;;;;5110606;28;20211;-69
2022/10/08 01:44:58;;;;;;;10.80;7.37;;;13.40;99.90;;;;;;5110652;28;20204;-70
2022/10/08 01:47:27;;;;;;;13.53;7.57;;;13.30;99.90;;;;;;5111282;28;20204;-70
2022/10/08 01:49:58;;;;;;;10.27;7.87;;;13.30;99.90;;;;;;5109757;28;20624;-69
2022/10/08 01:52:28;;;;;;;10.10;8.07;;;13.30;99.90;;;;;;5107694;28;20204;-70
2022/10/08 01:55:00;;;;;;;11.90;7.23;;;13.30;99.90;;;;;;5108835;28;20227;-69
2022/10/08 01:57:29;;;;;;;10.67;8.70;;;13.20;99.90;;;;;;5109659;28;20204;-70
2022/10/08 02:00:01;;;;;;;8.93;8.03;;;13.20;99.90;;;;;;5110755;28;20210;-70
2022/10/08 02:02:29;;;;;;;10.23;8.07;;;13.20;99.90;;;;;;5109186;28;20203;-70
2022/10/08 02:04:56;;;;;;;13.30;8.40;;;13.10;99.90;;;;;;5110690;28;20204;-69
2022/10/08 02:07:25;;;;;;;11.17;8.53;;;13.10;99.90;;;;;;5110114;28;20664;-69
2022/10/08 02:10:00;;;;;;;10.50;8.50;;;13.10;99.90;;;;;;5108875;28;20218;-69
2022/10/08 02:12:28;;;;;;;9.47;7.73;;;13.10;99.90;;;;;;5109865;28;20679;-70
2022/10/08 02:14:57;;;;;;;10.93;8.37;;;13.00;99.90;;;;;;5109631;28;20223;-71
2022/10/08 02:17:34;;;;;;;11.37;8.40;;;13.10;99.90;;;;;;5110525;28;20601;-70
2022/10/08 02:20:05;;;;;;;11.97;8.37;;;13.10;99.90;;;;;;5110563;28;20203;-69
2022/10/08 02:22:35;;;;;;;9.70;8.70;;;13.10;99.90;;;;;;5109122;28;20594;-70
2022/10/08 02:25:10;;;;;;;9.67;8.17;;;13.00;99.90;;;;;;5108695;28;20227;-69
2022/10/08 02:27:49;;;;;;;9.83;8.33;;;13.00;99.90;;;;;;5110584;28;20206;-70
2022/10/08 02:30:16;;;;;;;10.17;8.70;;;13.00;99.90;;;;;;5110789;28;20652;-70
2022/10/08 02:32:49;;;;;;;11.60;8.33;;;13.00;99.90;;;;;;5110391;28;20200;-68
2022/10/08 02:35:24;;;;;;;10.70;8.33;;;13.00;99.90;;;;;;5110696;28;20300;-69
2022/10/08 02:37:59;;;;;;;11.07;8.60;;;12.90;99.90;;;;;;5110037;28;20206;-70
2022/10/08 02:40:28;;;;;;;10.00;7.73;;;12.90;99.90;;;;;;5108050;28;20207;-70
2022/10/08 02:43:00;;;;;;;13.00;9.03;;;12.90;99.90;;;;;;5103829;28;20204;-69
2022/10/08 02:45:30;;;;;;;12.07;8.70;;;12.90;99.90;;;;;;5108423;28;20203;-69
2022/10/08 02:48:03;;;;;;;9.77;8.60;;;12.90;99.90;;;;;;5109195;28;20218;-70
2022/10/08 02:50:32;;;;;;;12.67;9.07;;;12.90;99.90;;;;;;5110569;28;20200;-70
2022/10/08 02:53:00;;;;;;;12.03;8.57;;;12.90;99.90;;;;;;5109583;28;20947;-69
2022/10/08 02:55:36;;;;;;;10.43;9.03;;;12.90;99.90;;;;;;5109032;28;20235;-69
2022/10/08 02:58:08;;;;;;;11.53;8.80;;;12.80;99.90;;;;;;5108384;28;20211;-69
2022/10/08 03:00:40;;;;;;;11.10;9.30;;;12.80;99.90;;;;;;5104686;28;20203;-71
2022/10/08 03:03:11;;;;;;;11.87;9.17;;;12.80;99.90;;;;;;5109490;28;20214;-70
2022/10/08 03:05:39;;;;;;;13.73;9.17;;;12.80;99.90;;;;;;5109409;28;20224;-70
2022/10/08 03:08:08;;;;;;;14.30;8.77;;;12.80;99.90;;;;;;5109997;28;20218;-70
2022/10/08 03:10:37;;;;;;;10.10;8.37;;;12.80;99.90;;;;;;5109852;28;20200;-70
2022/10/08 03:13:07;;;;;;;14.23;9.00;;;12.80;99.90;;;;;;5108894;28;20554;-70
2022/10/08 03:15:36;;;;;;;12.47;8.77;;;12.70;99.90;;;;;;5108374;28;20319;-71
2022/10/08 03:18:07;;;;;;;11.13;9.00;;;12.70;99.90;;;;;;5112527;28;20219;-71
2022/10/08 03:20:38;;;;;;;10.87;8.60;;;12.70;99.90;;;;;;5109466;28;20200;-71
2022/10/08 03:23:05;;;;;;;11.63;9.93;;;12.70;99.90;;;;;;5113520;28;20700;-71
2022/10/08 03:25:31;;;;;;;10.47;8.73;;;12.70;99.90;;;;;;5114100;28;20228;-70
2022/10/08 03:27:58;;;;;;;13.90;9.70;;;12.70;99.90;;;;;;5113167;28;20215;-71
2022/10/08 03:30:26;;;;;;;11.47;9.40;;;12.70;99.90;;;;;;5113905;28;20208;-71
2022/10/08 03:32:53;;;;;;;12.87;9.17;;;12.70;99.90;;;;;;5111766;28;20204;-70
2022/10/08 03:35:20;;;;;;;12.67;9.27;;;12.70;99.90;;;;;;5114088;28;20242;-71
2022/10/08 03:37:46;;;;;;;12.73;9.40;;;12.70;99.90;;;;;;5112689;28;20210;-70
2022/10/08 03:40:13;;;;;;;12.13;9.70;;;12.70;99.90;;;;;;5112299;28;20208;-71
2022/10/08 03:42:40;;;;;;;11.33;9.20;;;12.70;99.90;;;;;;5112807;28;20631;-71
2022/10/08 03:45:07;;;;;;;14.70;10.07;;;12.70;99.90;;;;;;5113865;28;20207;-70
2022/10/08 03:47:36;;;;;;;12.43;9.37;;;12.70;99.90;;;;;;5111452;28;20196;-70
2022/10/08 03:50:02;;;;;;;13.90;9.77;;;12.80;99.90;;;;;;5113875;28;20664;-70
2022/10/08 03:52:30;;;;;;;12.13;9.37;;;12.70;99.90;;;;;;5111964;28;20212;-71
2022/10/08 03:54:56;;;;;;;13.87;9.20;;;12.80;99.90;;;;;;5113199;28;20269;-70
2022/10/08 03:57:23;;;;;;;11.60;9.37;;;12.80;99.90;;;;;;5113017;28;20591;-69
2022/10/08 03:59:50;;;;;;;11.10;9.70;;;12.80;99.90;;;;;;5111629;28;20192;-69
2022/10/08 04:02:17;;;;;;;11.33;9.57;;;12.80;99.90;;;;;;5112016;28;20204;-69
2022/10/08 04:04:45;;;;;;;11.73;9.43;;;12.80;99.90;;;;;;5111492;28;20527;-69
2022/10/08 04:07:12;;;;;;;14.13;9.67;;;12.80;99.90;;;;;;5112514;28;20564;-68
2022/10/08 04:09:38;;;;;;;11.00;9.77;;;12.80;99.90;;;;;;5110581;28;20207;-69
2022/10/08 04:12:05;;;;;;;14.17;9.50;;;12.80;99.90;;;;;;5111069;28;20215;-69
2022/10/08 04:14:32;;;;;;;10.60;9.40;;;12.90;99.90;;;;;;5112618;28;20228;-68
2022/10/08 04:16:59;;;;;;;13.77;9.93;;;12.90;99.90;;;;;;5112400;28;20242;-69
2022/10/08 04:19:25;;;;;;;10.80;9.53;;;12.90;99.90;;;;;;5112516;28;20212;-68
2022/10/08 04:21:53;;;;;;;11.37;9.20;;;12.90;99.90;;;;;;5109446;28;20203;-68
2022/10/08 04:24:20;;;;;;;11.67;9.30;;;12.90;99.90;;;;;;5111078;28;20207;-69
2022/10/08 04:26:47;;;;;;;12.23;9.77;;;13.00;99.90;;;;;;5109872;28;20228;-69
2022/10/08 04:29:14;;;;;;;14.20;10.03;;;13.00;99.90;;;;;;5111981;28;20207;-69
2022/10/08 04:31:40;;;;;;;10.87;9.50;;;13.00;99.90;;;;;;5112019;28;20223;-69
2022/10/08 04:34:07;;;;;;;12.93;10.13;;;13.00;99.90;;;;;;5112753;28;20208;-69
2022/10/08 04:36:34;;;;;;;12.13;9.93;;;13.00;99.90;;;;;;5112289;28;20224;-69
2022/10/08 04:39:02;;;;;;;12.50;10.50;;;13.10;99.90;;;;;;5109383;28;20218;-68
2022/10/08 04:41:28;;;;;;;13.47;10.77;;;13.10;99.90;;;;;;5107053;28;20217;-69
2022/10/08 04:43:59;;;;;;;14.47;10.23;;;13.10;99.90;;;;;;5103453;28;20200;-69
2022/10/08 04:46:26;;;;;;;11.50;9.50;;;13.20;99.90;;;;;;5110770;28;20201;-69
2022/10/08 04:48:55;;;;;;;15.73;10.50;;;13.20;99.90;;;;;;5112366;28;20215;-70
2022/10/08 04:51:24;;;;;;;11.40;10.17;;;13.30;99.90;;;;;;5110250;28;20212;-69
2022/10/08 04:53:51;;;;;;;12.30;10.40;;;13.30;99.90;;;;;;5110319;28;20799;-69
2022/10/08 04:56:21;;;;;;;13.10;10.93;;;13.30;99.90;;;;;;5107763;28;20231;-68
2022/10/08 04:58:49;;;;;;;11.90;10.60;;;13.30;99.90;;;;;;5104138;28;20611;-68
2022/10/08 05:01:17;;;;;;;15.90;10.20;;;13.30;99.90;;;;;;5097483;28;20204;-68
2022/10/08 05:03:46;;;;;;;10.70;9.60;;;13.30;99.90;;;;;;5109898;28;20204;-68
2022/10/08 05:06:15;;;;;;;10.87;9.57;;;13.40;99.90;;;;;;5099488;28;20204;-68
2022/10/08 05:08:42;;;;;;;12.97;10.10;;;13.40;99.90;;;;;;5108721;28;20196;-68
2022/10/08 05:11:09;;;;;;;10.77;9.00;;;13.40;99.90;;;;;;5103528;28;20211;-68
2022/10/08 05:13:37;;;;;;;15.60;10.20;;;13.50;99.90;;;;;;5099575;28;20854;-68
2022/10/08 05:16:05;;;;;;;13.03;9.83;;;13.50;99.90;;;;;;5101514;28;20243;-68
2022/10/08 05:18:33;;;;;;;12.10;9.83;;;13.50;99.90;;;;;;5111094;28;20210;-69
2022/10/08 05:21:03;;;;;;;15.60;10.67;;;13.50;99.90;;;;;;5109970;28;20280;-69
2022/10/08 05:23:30;;;;;;;11.07;9.50;;;13.50;99.90;;;;;;5094488;28;20686;-69
2022/10/08 05:25:56;;;;;;;12.83;10.10;;;13.50;99.90;;;;;;5106304;28;20262;-68
2022/10/08 05:28:23;;;;;;;11.73;10.10;;;13.50;99.90;;;;;;5111690;28;20230;-69
2022/10/08 05:30:51;;;;;;;12.60;10.27;;;13.50;99.90;;;;;;5108862;28;20200;-71
2022/10/08 05:33:18;;;;;;;11.77;10.07;;;13.50;99.90;;;;;;5111432;28;20204;-69
2022/10/08 05:35:45;;;;;;;13.53;10.83;;;13.50;99.90;;;;;;5110384;28;20573;-70
2022/10/08 05:38:11;;;;;;;11.10;9.50;;;13.50;99.90;;;;;;5108446;28;20550;-70
2022/10/08 05:40:38;;;;;;;14.63;10.23;;;13.50;99.90;;;;;;5103451;28;20424;-69
2022/10/08 05:43:05;;;;;;;13.03;9.90;;;13.50;99.90;;;;;;5108888;28;20242;-68
2022/10/08 05:45:31;;;;;;;11.30;10.10;;;13.50;99.90;;;;;;5104124;28;20296;-68
2022/10/08 05:48:00;;;;;;;15.37;10.43;;;13.60;99.90;;;;;;5107462;28;20211;-68
2022/10/08 05:50:26;;;;;;;11.60;9.97;;;13.60;99.90;;;;;;5108771;28;20214;-69
2022/10/08 05:52:53;;;;;;;11.83;9.97;;;13.60;99.90;;;;;;5110442;28;20216;-69
2022/10/08 05:55:20;;;;;;;13.63;10.90;;;13.80;99.90;;;;;;5109550;28;20246;-69
2022/10/08 05:57:46;;;;;;;12.33;10.37;;;13.90;99.90;;;;;;5110874;28;20636;-70
2022/10/08 06:00:14;;;;;;;12.97;10.43;;;14.00;99.90;;;;;;5104282;28;20612;-68
2022/10/08 06:02:41;;;;;;;15.23;10.40;;;14.10;99.90;;;;;;5109123;28;20513;-69
2022/10/08 06:05:09;;;;;;;13.70;10.63;;;14.20;99.90;;;;;;5108804;28;20230;-70
2022/10/08 06:07:36;;;;;;;13.10;10.27;;;14.30;99.90;;;;;;5101564;28;20230;-69
2022/10/08 06:10:03;;;;;;;14.70;10.17;;;14.40;99.90;;;;;;5106095;28;20543;-70
2022/10/08 06:12:30;;;;;;;12.67;11.10;;;14.50;99.90;;;;;;5107631;28;20692;-69
2022/10/08 06:14:57;;;;;;;13.67;9.63;;;14.50;99.90;;;;;;5103149;28;20586;-69
2022/10/08 06:17:23;;;;;;;11.97;10.53;;;14.60;99.90;;;;;;5110597;28;20719;-69
2022/10/08 06:19:50;;;;;;;14.93;10.57;;;14.70;99.90;;;;;;5107555;28;20211;-71
2022/10/08 06:22:18;;;;;;;13.17;10.23;;;14.70;99.90;;;;;;5109360;28;20235;-70
2022/10/08 06:24:45;;;;;;;13.40;10.90;;;14.70;99.90;;;;;;5110281;28;20664;-70
2022/10/08 06:27:12;;;;;;;14.73;10.30;;;14.80;99.90;;;;;;5109935;28;20290;-70
2022/10/08 06:29:39;;;;;;;11.67;10.13;;;14.80;99.90;;;;;;5109243;28;20216;-71
2022/10/08 06:32:05;;;;;;;15.93;10.27;;;14.90;99.90;;;;;;5102579;28;20664;-68
2022/10/08 06:34:32;;;;;;;14.23;10.73;;;14.90;99.90;;;;;;5108458;28;20625;-69
2022/10/08 06:36:59;;;;;;;15.13;10.40;;;15.00;99.90;;;;;;5105321;28;20228;-67
2022/10/08 06:39:27;;;;;;;17.07;10.97;;;15.10;99.90;;;;;;5108272;28;20196;-72
2022/10/08 06:41:54;;;;;;;11.83;10.13;;;15.10;99.90;;;;;;5110180;28;20603;-76
2022/10/08 06:44:21;;;;;;;15.27;10.53;;;15.20;99.90;;;;;;5110170;28;20218;-73
2022/10/08 06:46:47;;;;;;;16.30;10.70;;;15.20;99.90;;;;;;5108762;28;20202;-68
2022/10/08 06:49:14;;;;;;;16.27;9.70;;;15.30;99.90;;;;;;5111416;28;20238;-69
2022/10/08 06:51:41;;;;;;;15.60;11.27;;;15.30;99.90;;;;;;5105503;28;20577;-64
2022/10/08 06:54:08;;;;;;;11.65;10.35;;;15.40;99.90;;;;;;5112724;28;20230;-65
2022/10/08 06:56:37;;;;;;;12.67;10.50;;;15.30;99.90;;;;;;5110999;28;20228;-69
2022/10/08 06:59:04;;;;;;;13.03;9.87;;;15.40;99.90;;;;;;5107030;28;20212;-66
2022/10/08 07:01:31;;;;;;;17.10;10.67;;;15.40;99.90;;;;;;5105311;28;20636;-65
2022/10/08 07:03:59;;;;;;;14.47;10.57;;;15.40;99.90;;;;;;5111311;28;20203;-69
2022/10/08 07:06:26;;;;;;;16.23;10.57;;;15.50;99.90;;;;;;5112054;28;20200;-69
2022/10/08 07:08:54;;;;;;;12.10;10.25;;;15.40;99.90;;;;;;5113997;28;20564;-71
2022/10/08 07:11:23;;;;;;;11.83;9.63;;;15.50;99.90;;;;;;5113403;28;20308;-70
2022/10/08 07:13:51;;;;;;;11.80;10.18;;;15.50;99.90;;;;;;5113472;28;20207;-70
2022/10/08 07:16:19;;;;;;;13.07;10.18;;;15.50;99.90;;;;;;5112481;28;20231;-69
2022/10/08 07:18:47;;;;;;;16.48;11.07;;;15.50;99.90;;;;;;5109223;28;20200;-72
2022/10/08 07:21:16;;;;;;;21.80;11.63;;;15.50;99.90;;;;;;5113927;28;20219;-74
2022/10/08 07:23:43;;;;;;;13.23;10.70;;;15.50;99.90;;;;;;5114579;28;20227;-74
2022/10/08 07:26:13;;;;;;;13.10;10.35;;;15.50;99.90;;;;;;5111714;28;20582;-70
2022/10/08 07:28:42;;;;;;;15.45;10.93;;;15.60;99.90;;;;;;5109719;28;20216;-74
2022/10/08 07:31:13;;;;;;;12.93;11.02;;;15.60;99.90;;;;;;5114691;28;20215;-69
2022/10/08 07:33:40;;;;;;;13.57;10.43;;;15.60;99.90;;;;;;5108103;28;20196;-74
2022/10/08 07:36:09;;;;;;;13.40;10.20;;;15.70;99.90;;;;;;5113173;28;20724;-73
2022/10/08 07:38:36;;;;;;;17.77;10.82;;;15.70;99.90;;;;;;5112452;28;20303;-74
2022/10/08 07:41:03;;;;;;;14.77;10.70;;;15.80;99.90;;;;;;5113633;28;20214;-73
2022/10/08 07:43:30;;;;;;;15.65;10.50;;;15.80;99.90;;;;;;5109732;28;20219;-73
2022/10/08 07:45:56;;;;;;;13.43;10.50;;;15.80;99.90;;;;;;5114609;28;20222;-73
2022/10/08 07:48:25;;;;;;;12.17;9.60;;;15.80;99.90;;;;;;5114570;28;20562;-74
2022/10/08 07:50:51;;;;;;;13.70;9.63;;;15.90;99.90;;;;;;5112326;28;20191;-74
2022/10/08 07:53:18;;;;;;;15.75;10.60;;;16.00;99.90;;;;;;5112808;28;20196;-69
2022/10/08 07:55:45;;;;;;;14.37;9.87;;;16.00;99.90;;;;;;5112366;28;20242;-70
2022/10/08 07:58:13;;;;;;;15.15;11.48;;;16.20;99.90;;;;;;5112815;28;20241;-76
2022/10/08 08:00:40;;;;;;;16.33;10.87;;;16.20;99.90;;;;;;5110448;28;20210;-75
2022/10/08 08:03:10;;;;;;;12.70;10.23;;;16.20;99.90;;;;;;5109013;28;20211;-74
2022/10/08 08:05:38;;;;;;;14.82;9.75;;;16.30;99.90;;;;;;5101656;28;20200;-73
2022/10/08 08:08:05;;;;;;;17.75;11.00;;;16.30;99.90;;;;;;5110403;28;20216;-75
2022/10/08 08:10:32;;;;;;;12.63;9.63;;;16.40;99.90;;;;;;5112668;28;20227;-76
2022/10/08 08:12:59;;;;;;;13.57;9.40;;;16.70;99.90;;;;;;5113044;28;20208;-75
2022/10/08 08:15:25;;;;;;;11.85;9.60;;;16.90;99.90;;;;;;5112279;28;20595;-75
2022/10/08 08:17:52;;;;;;;10.50;9.40;;;17.00;99.90;;;;;;5100730;28;20224;-69
2022/10/08 08:20:19;;;;;;;10.30;8.75;;;17.20;99.90;;;;;;5113224;28;20682;-75
2022/10/08 08:22:47;;;;;;;11.88;9.68;;;17.30;99.90;;;;;;5106674;28;20561;-75
2022/10/08 08:25:14;;;;;;;11.57;9.57;;;17.40;99.90;;;;;;5102716;28;20618;-69
2022/10/08 08:27:41;;;;;;;13.63;9.18;;;17.40;99.90;;;;;;5113221;28;20582;-74
2022/10/08 08:30:09;;;;;;;10.07;8.18;;;17.50;99.90;;;;;;5113806;28;20214;-75
2022/10/08 08:32:36;;;;;;;12.25;9.07;;;17.70;99.90;;;;;;5112773;28;20789;-72
2022/10/08 08:35:03;;;;;;;11.90;8.60;;;17.80;99.90;;;;;;5112161;28;20199;-71
2022/10/08 08:37:30;;;;;;;9.82;8.65;;;18.00;99.90;;;;;;5109889;28;20226;-69
2022/10/08 08:39:58;;;;;;;13.18;9.27;;;18.10;99.90;;;;;;5102962;28;20208;-68
2022/10/08 08:42:41;;;;;;;10.07;8.70;;;18.30;99.90;;;;;;5108523;28;20203;-74
2022/10/08 08:45:21;;;;;;;11.18;8.93;;;18.60;99.90;;;;;;5112927;28;20206;-73
2022/10/08 08:47:59;;;;;;;8.85;6.93;;;18.80;99.90;;;;;;5114028;28;20204;-74
2022/10/08 08:50:32;;;;;;;13.27;8.10;;;19.10;99.90;;;;;;5113662;28;20208;-75
2022/10/08 08:53:00;;;;;;;9.48;7.57;;;19.40;99.90;;;;;;5113154;28;20214;-75
2022/10/08 08:55:35;;;;;;;9.57;7.60;;;19.70;99.90;;;;;;5110778;28;20200;-76
2022/10/08 08:58:15;;;;;;;9.35;7.22;;;20.30;99.90;;;;;;5112816;28;20672;-76
2022/10/08 09:00:46;;;;;;;7.68;6.90;;;20.80;99.90;;;;;;5113943;28;20212;-76
2022/10/08 09:03:20;;;;;;;8.30;6.88;;;22.40;99.90;;;;;;5114452;28;20227;-75
2022/10/08 09:05:51;;;;;;;7.20;6.10;;;24.50;99.90;;;;;;5112908;28;20207;-74
2022/10/08 09:08:20;;;;;;;9.82;6.10;;;27.30;99.90;;;;;;5112510;28;20203;-74
2022/10/08 09:10:54;;;;;;;12.55;6.20;;;28.80;90.90;;;;;;5102249;28;20215;-75
2022/10/08 09:13:24;;;;;;;7.20;6.38;;;28.90;86.30;;;;;;5109038;28;20219;-74
2022/10/08 09:15:54;;;;;;;8.60;6.68;;;29.00;82.60;;;;;;5112166;28;20200;-74
2022/10/08 09:18:21;;;;;;;6.82;6.07;;;29.50;80.00;;;;;;5112108;28;20625;-75
2022/10/08 09:20:48;;;;;;;6.82;5.72;;;30.80;75.50;;;;;;5112253;28;20200;-76
2022/10/08 09:23:18;;;;;;;7.22;5.97;;;31.90;68.30;;;;;;5112830;28;20227;-75
2022/10/08 09:25:53;;;;;;;6.10;5.50;;;32.90;63.70;;;;;;5111458;28;20232;-76
2022/10/08 09:28:39;;;;;;;8.35;5.32;;;33.80;58.50;;;;;;5112541;28;20637;-74
2022/10/08 09:31:16;;;;;;;9.93;6.18;;;33.50;55.90;;;;;;5094134;28;20204;-74
2022/10/08 09:33:43;;;;;;;5.65;5.15;;;32.60;55.70;;;;;;5102935;28;20203;-75
2022/10/08 09:36:11;;;;;;;8.75;6.40;;;31.60;57.50;;;;;;5105951;28;20227;-73
2022/10/08 09:38:39;;;;;;;7.55;6.80;;;31.00;58.90;;;;;;5109261;28;20216;-74
2022/10/08 09:41:16;;;;;;;10.88;6.85;;;30.40;58.90;;;;;;5111860;28;20222;-74
2022/10/08 09:43:44;;;;;;;9.68;6.18;;;29.50;61.00;;;;;;5112147;28;20215;-74
2022/10/08 09:46:28;;;;;;;7.78;6.20;;;28.80;62.80;;;;;;5112248;28;20287;-74
2022/10/08 09:48:55;;;;;;;7.22;6.45;;;28.30;63.90;;;;;;5112543;28;20196;-74
2022/10/08 09:51:22;;;;;;;6.47;5.53;;;27.80;65.50;;;;;;5111658;28;20501;-75
2022/10/08 09:53:54;;;;;;;6.90;6.18;;;27.30;66.90;;;;;;5111282;28;20286;-74
2022/10/08 09:56:27;;;;;;;10.23;6.28;;;27.10;67.90;;;;;;5109750;28;20696;-74
2022/10/08 09:58:57;;;;;;;6.95;5.63;;;26.80;68.80;;;;;;5112055;28;20196;-75
2022/10/08 10:01:25;;;;;;;9.85;6.22;;;26.50;70.30;;;;;;5111408;28;20210;-74
2022/10/08 10:03:55;;;;;;;6.18;5.53;;;26.80;71.00;;;;;;5112451;28;20208;-73
2022/10/08 10:06:27;;;;;;;9.60;6.55;;;27.20;69.40;;;;;;5112269;28;20208;-73
2022/10/08 10:09:01;;;;;;;7.85;6.20;;;27.50;68.40;;;;;;5112231;28;20214;-73
2022/10/08 10:11:37;;;;;;;7.03;6.32;;;27.50;67.60;;;;;;5097345;28;20281;-73
2022/10/08 10:14:14;;;;;;;7.82;6.22;;;27.10;67.80;;;;;;5111807;28;20645;-73
2022/10/08 10:16:43;;;;;;;8.63;6.65;;;26.50;68.80;;;;;;5101502;28;20208;-74
2022/10/08 10:19:16;;;;;;;11.70;6.82;;;25.80;71.10;;;;;;5109901;28;20284;-73
2022/10/08 10:21:51;;;;;;;8.10;6.50;;;25.20;73.30;;;;;;5110772;28;20207;-73
2022/10/08 10:24:34;;;;;;;7.93;6.40;;;24.90;75.60;;;;;;5112316;28;20604;-74
2022/10/08 10:27:07;;;;;;;6.78;6.07;;;24.90;76.30;;;;;;5115513;28;20288;-73
2022/10/08 10:29:44;;;;;;;7.22;6.53;;;24.90;75.70;;;;;;5097096;28;20675;-74
2022/10/08 10:32:14;;;;;;;8.00;6.65;;;24.70;76.40;;;;;;5115528;28;20211;-75
2022/10/08 10:34:44;;;;;;;9.52;8.60;;;24.60;77.60;;;;;;5113674;28;20211;-73
2022/10/08 10:37:16;;;;;;;9.23;7.03;;;24.30;78.20;;;;;;5115325;28;20302;-74
2022/10/08 10:39:47;;;;;;;8.93;6.35;;;24.20;79.80;;;;;;5114617;28;20203;-74
2022/10/08 10:42:19;;;;;;;8.02;6.38;;;24.20;81.20;;;;;;5116136;28;20207;-74
2022/10/08 10:44:52;;;;;;;9.25;6.22;;;24.40;80.40;;;;;;5115267;28;20282;-74
2022/10/08 10:47:22;;;;;;;8.45;6.65;;;24.10;80.00;;;;;;5113215;28;20203;-75
2022/10/08 10:49:50;;;;;;;7.35;6.38;;;23.80;81.20;;;;;;5112080;28;20218;-74
2022/10/08 10:52:43;;;;;;;9.30;7.03;;;23.40;82.40;;;;;;5115206;28;20215;-75
2022/10/08 10:55:20;;;;;;;7.72;6.97;;;23.10;84.30;;;;;;5114631;28;20212;-75
2022/10/08 10:58:09;;;;;;;8.55;6.28;;;22.70;86.00;;;;;;5115363;28;20327;-75
2022/10/08 11:00:47;;;;;;;9.88;6.72;;;22.40;87.70;;;;;;5115298;28;20208;-75
2022/10/08 11:03:24;;;;;;;7.72;6.70;;;22.10;89.10;;;;;;5115666;28;20211;-75
2022/10/08 11:05:58;;;;;;;9.93;7.38;;;21.80;90.30;;;;;;5114339;28;20200;-75
2022/10/08 11:08:38;;;;;;;8.43;7.20;;;21.60;91.20;;;;;;5113671;28;20192;-74
2022/10/08 11:11:20;;;;;;;9.40;6.95;;;21.40;92.00;;;;;;5115335;28;20213;-75
2022/10/08 11:14:02;;;;;;;9.30;7.72;;;21.10;93.00;;;;;;5115343;28;20207;-78
2022/10/08 11:16:38;;;;;;;10.02;7.65;;;20.90;94.00;;;;;;5114596;28;20196;-75
2022/10/08 11:19:15;;;;;;;12.48;7.72;;;20.70;95.00;;;;;;5114067;28;20235;-77
2022/10/08 11:21:58;;;;;;;9.43;7.00;;;20.60;96.10;;;;;;5113567;28;20231;-77
2022/10/08 11:24:52;;;;;;;8.85;7.53;;;20.60;97.20;;;;;;5115125;28;20729;-76
2022/10/08 11:27:29;;;;;;;8.80;7.50;;;20.50;98.00;;;;;;5097868;28;20559;-75
2022/10/08 11:30:03;;;;;;;12.45;7.95;;;20.60;98.80;;;;;;5114533;28;20192;-75
2022/10/08 11:32:32;;;;;;;9.45;7.70;;;20.60;99.50;;;;;;5114302;28;20219;-74
2022/10/08 11:35:15;;;;;;;14.20;8.48;;;20.60;99.90;;;;;;5114407;28;20215;-76
2022/10/08 11:37:48;;;;;;;12.90;8.02;;;20.50;99.90;;;;;;5112929;28;20214;-75
2022/10/08 11:40:25;;;;;;;11.73;8.85;;;20.50;99.90;;;;;;5106331;28;20219;-75
2022/10/08 11:43:00;;;;;;;11.40;8.25;;;20.50;99.90;;;;;;5107255;28;20212;-71
2022/10/08 11:45:38;;;;;;;9.80;7.60;;;20.50;99.90;;;;;;5111108;28;20219;-75
2022/10/08 11:48:31;;;;;;;10.07;9.07;;;20.40;99.90;;;;;;5109493;28;20225;-72
2022/10/08 11:51:33;;;;;;;8.80;7.90;;;20.50;99.90;;;;;;5111637;28;20260;-73
2022/10/08 11:54:11;;;;;;;9.40;8.43;;;20.60;99.90;;;;;;5107337;28;20214;-75
2022/10/08 11:56:41;;;;;;;12.23;8.20;;;20.70;99.90;;;;;;5109550;28;20771;-74
2022/10/08 11:59:32;;;;;;;10.52;8.95;;;20.80;99.90;;;;;;5111972;28;20200;-71
2022/10/08 12:02:02;;;;;;;10.23;8.38;;;20.80;99.90;;;;;;5106209;28;20244;-69
2022/10/08 12:04:33;;;;;;;10.57;8.77;;;20.80;99.90;;;;;;5108048;28;20217;-70
2022/10/08 12:07:19;;;;;;;14.57;8.77;;;20.80;99.90;;;;;;5108057;28;20203;-71
2022/10/08 12:10:23;;;;;;;9.30;8.40;;;20.90;99.90;;;;;;5108679;28;20227;-71
2022/10/08 12:13:25;;;;;;;11.13;9.38;;;21.80;99.90;;;;;;5112778;28;20258;-71
2022/10/08 12:16:03;;;;;;;10.73;8.15;;;22.50;99.90;;;;;;5108924;28;20214;-73
2022/10/08 12:18:53;;;;;;;11.27;7.90;;;23.80;99.90;;;;;;5110586;28;20243;-74
2022/10/08 12:21:50;;;;;;;11.13;7.68;;;25.00;99.30;;;;;;5111121;28;20577;-74
2022/10/08 12:24:49;;;;;;;9.38;7.40;;;27.40;97.20;;;;;;5106865;28;20195;-76
2022/10/08 12:27:32;;;;;;;8.65;6.90;;;29.80;85.70;;;;;;5107401;28;20291;-71
2022/10/08 12:30:01;;;;;;;9.52;7.40;;;29.90;73.20;;;;;;5110433;28;20208;-70
2022/10/08 12:32:29;;;;;;;9.40;8.18;;;29.70;74.40;;;;;;5107511;28;20298;-74
2022/10/08 12:34:59;;;;;;;8.05;7.07;;;28.90;72.60;;;;;;5111804;28;20212;-73
2022/10/08 12:37:46;;;;;;;8.48;7.40;;;27.90;75.40;;;;;;5108635;28;20594;-72
2022/10/08 12:40:25;;;;;;;8.52;7.63;;;27.10;77.60;;;;;;5112366;28;20218;-71
2022/10/08 12:43:08;;;;;;;8.55;7.40;;;26.70;79.90;;;;;;5095175;28;20207;-71
2022/10/08 12:45:44;;;;;;;11.65;8.05;;;26.40;80.00;;;;;;5103836;28;20286;-73
2022/10/08 12:48:19;;;;;;;9.55;8.20;;;25.90;81.60;;;;;;5106376;28;20214;-72
2022/10/08 12:51:00;;;;;;;9.35;7.72;;;25.30;82.80;;;;;;5108230;28;20195;-73
2022/10/08 12:53:27;;;;;;;12.13;7.93;;;24.80;85.30;;;;;;5107224;28;20203;-71
2022/10/08 12:55:56;;;;;;;8.63;7.78;;;24.40;86.70;;;;;;5112862;28;20250;-72
2022/10/08 12:58:28;;;;;;;10.35;8.55;;;24.00;88.60;;;;;;5112324;28;20220;-72